createdAt,value
2017-07-14T00:01:03.388Z,2.40
2017-07-14T00:03:30.909Z,2.13
2017-07-14T00:05:58.445Z,2.17
2017-07-14T00:08:25.976Z,2.00
2017-07-14T00:10:53.600Z,2.00
2017-07-14T00:13:21.120Z,2.03
2017-07-14T00:15:48.649Z,2.00
2017-07-14T00:18:16.179Z,1.90
2017-07-14T00:20:43.804Z,2.07
2017-07-14T00:23:11.328Z,2.20
2017-07-14T00:25:38.881Z,2.03
2017-07-14T00:28:06.397Z,2.17
2017-07-14T00:30:33.961Z,2.00
2017-07-14T00:33:01.500Z,2.13
2017-07-14T00:35:29.792Z,1.80
2017-07-14T00:37:58.119Z,2.20
2017-07-14T00:40:25.652Z,2.43
2017-07-14T00:42:53.208Z,2.20
2017-07-14T00:45:20.744Z,2.00
2017-07-14T00:47:49.059Z,1.93
2017-07-14T00:50:16.594Z,2.13
2017-07-14T00:52:44.180Z,2.10
2017-07-14T00:55:11.709Z,1.90
2017-07-14T00:57:39.243Z,2.00
2017-07-14T01:00:06.823Z,1.90
2017-07-14T01:02:34.337Z,1.63
2017-07-14T01:05:01.892Z,1.67
2017-07-14T01:07:29.476Z,1.80
2017-07-14T01:09:57.032Z,1.53
2017-07-14T01:12:24.599Z,1.77
2017-07-14T01:14:52.135Z,1.90
2017-07-14T01:17:19.651Z,1.70
2017-07-14T01:19:47.192Z,1.70
2017-07-14T01:22:14.735Z,2.17
2017-07-14T01:24:42.292Z,1.70
2017-07-14T01:27:09.836Z,1.50
2017-07-14T01:29:37.377Z,1.90
2017-07-14T01:32:04.908Z,1.70
2017-07-14T01:34:32.472Z,1.50
2017-07-14T01:36:59.988Z,1.60
2017-07-14T01:39:27.496Z,1.70
2017-07-14T01:41:55.039Z,2.10
2017-07-14T01:44:22.545Z,1.77
2017-07-14T01:46:50.076Z,1.70
2017-07-14T01:49:17.587Z,1.70
2017-07-14T01:51:45.888Z,1.73
2017-07-14T01:54:13.399Z,1.30
2017-07-14T01:56:40.959Z,1.60
2017-07-14T01:59:08.489Z,1.67
2017-07-14T02:01:36.048Z,1.70
2017-07-14T02:04:03.561Z,1.27
2017-07-14T02:06:31.112Z,1.70
2017-07-14T02:08:59.399Z,1.60
2017-07-14T02:11:27.713Z,1.50
2017-07-14T02:13:56.028Z,1.47
2017-07-14T02:16:23.542Z,1.70
2017-07-14T02:18:51.096Z,1.60
2017-07-14T02:21:18.621Z,1.30
2017-07-14T02:23:46.160Z,1.27
2017-07-14T02:26:13.673Z,1.40
2017-07-14T02:28:41.223Z,1.60
2017-07-14T02:31:08.736Z,1.70
2017-07-14T02:33:36.284Z,1.60
2017-07-14T02:36:03.804Z,1.50
2017-07-14T02:38:31.373Z,1.40
2017-07-14T02:40:58.973Z,1.60
2017-07-14T02:43:26.530Z,1.60
2017-07-14T02:45:54.053Z,1.70
2017-07-14T02:48:21.603Z,1.37
2017-07-14T02:50:49.116Z,1.47
2017-07-14T02:53:16.629Z,1.63
2017-07-14T02:55:44.183Z,1.40
2017-07-14T02:58:11.696Z,1.20
2017-07-14T03:00:39.238Z,1.50
2017-07-14T03:03:06.781Z,1.40
2017-07-14T03:05:34.318Z,1.30
2017-07-14T03:08:01.844Z,1.30
2017-07-14T03:10:29.382Z,1.53
2017-07-14T03:12:56.893Z,1.67
2017-07-14T03:15:24.428Z,1.70
2017-07-14T03:17:52.709Z,1.70
2017-07-14T03:20:21.032Z,1.50
2017-07-14T03:22:48.569Z,1.40
2017-07-14T03:25:16.139Z,1.77
2017-07-14T03:27:43.677Z,1.33
2017-07-14T03:30:11.216Z,1.40
2017-07-14T03:32:39.536Z,1.60
2017-07-14T03:35:07.066Z,1.70
2017-07-14T03:37:34.608Z,1.50
2017-07-14T03:40:02.893Z,1.67
2017-07-14T03:42:31.190Z,1.60
2017-07-14T03:44:58.709Z,1.50
2017-07-14T03:47:26.236Z,1.37
2017-07-14T03:49:53.793Z,1.63
2017-07-14T03:52:21.353Z,1.60
2017-07-14T03:54:48.909Z,1.60
2017-07-14T03:57:16.456Z,1.37
2017-07-14T03:59:43.984Z,1.50
2017-07-14T04:02:11.501Z,1.57
2017-07-14T04:04:39.036Z,1.60
2017-07-14T04:07:06.556Z,1.70
2017-07-14T04:09:34.109Z,1.47
2017-07-14T04:12:01.624Z,1.80
2017-07-14T04:14:29.206Z,1.37
2017-07-14T04:16:56.759Z,1.80
2017-07-14T04:19:24.346Z,1.70
2017-07-14T04:21:51.883Z,1.67
2017-07-14T04:24:19.397Z,1.60
2017-07-14T04:26:46.956Z,1.90
2017-07-14T04:29:14.480Z,1.73
2017-07-14T04:31:42.076Z,1.90
2017-07-14T04:34:09.581Z,1.90
2017-07-14T04:36:37.115Z,1.87
2017-07-14T04:39:04.629Z,1.67
2017-07-14T04:41:32.932Z,2.10
2017-07-14T04:44:00.478Z,2.10
2017-07-14T04:46:28.024Z,2.10
2017-07-14T04:48:56.329Z,2.00
2017-07-14T04:51:23.843Z,2.23
2017-07-14T04:53:51.376Z,2.23
2017-07-14T04:56:18.892Z,2.03
2017-07-14T04:58:46.538Z,2.20
2017-07-14T05:01:14.844Z,1.73
2017-07-14T05:03:42.380Z,2.17
2017-07-14T05:06:09.886Z,1.80
2017-07-14T05:08:37.431Z,1.80
2017-07-14T05:11:04.940Z,1.90
2017-07-14T05:13:33.296Z,2.10
2017-07-14T05:16:00.808Z,1.93
2017-07-14T05:18:28.364Z,1.90
2017-07-14T05:20:55.920Z,1.80
2017-07-14T05:23:23.465Z,2.20
2017-07-14T05:25:51.009Z,2.40
2017-07-14T05:28:19.325Z,1.93
2017-07-14T05:30:46.866Z,1.73
2017-07-14T05:33:14.376Z,2.40
2017-07-14T05:35:41.940Z,2.30
2017-07-14T05:38:09.481Z,2.00
2017-07-14T05:40:37.055Z,2.00
2017-07-14T05:43:04.597Z,1.90
2017-07-14T05:45:32.133Z,1.93
2017-07-14T05:47:59.677Z,2.27
2017-07-14T05:50:27.249Z,2.20
2017-07-14T05:52:54.784Z,2.20
2017-07-14T05:55:22.439Z,1.90
2017-07-14T05:57:50.005Z,2.13
2017-07-14T06:00:17.515Z,2.20
2017-07-14T06:02:45.098Z,2.40
2017-07-14T06:05:12.641Z,2.30
2017-07-14T06:07:41.010Z,2.30
2017-07-14T06:10:09.291Z,2.33
2017-07-14T06:12:36.944Z,2.13
2017-07-14T06:15:04.455Z,1.93
2017-07-14T06:17:32.020Z,2.10
2017-07-14T06:19:59.571Z,2.30
2017-07-14T06:22:27.149Z,1.87
2017-07-14T06:24:54.694Z,1.83
2017-07-14T06:27:22.232Z,1.90
2017-07-14T06:29:49.757Z,2.10
2017-07-14T06:32:17.308Z,2.33
2017-07-14T06:34:49.168Z,2.30
2017-07-14T06:37:16.744Z,2.07
2017-07-14T06:39:44.277Z,2.20
2017-07-14T06:42:12.573Z,2.50
2017-07-14T06:44:40.143Z,2.37
2017-07-14T06:47:07.685Z,3.00
2017-07-14T06:49:35.322Z,2.40
2017-07-14T06:52:02.878Z,2.73
2017-07-14T06:54:31.207Z,2.00
2017-07-14T06:56:58.744Z,2.63
2017-07-14T06:59:26.302Z,2.60
2017-07-14T07:01:53.840Z,2.53
2017-07-14T07:04:21.404Z,2.20
2017-07-14T07:06:49.029Z,2.00
2017-07-14T07:09:16.565Z,2.67
2017-07-14T07:11:44.112Z,2.47
2017-07-14T07:14:11.684Z,2.10
2017-07-14T07:16:39.206Z,2.17
2017-07-14T07:19:06.725Z,2.57
2017-07-14T07:21:34.260Z,2.17
2017-07-14T07:24:02.780Z,2.37
2017-07-14T07:26:30.328Z,2.30
2017-07-14T07:28:57.885Z,2.23
2017-07-14T07:31:25.429Z,2.10
2017-07-14T07:33:52.957Z,2.00
2017-07-14T07:36:20.614Z,2.10
2017-07-14T07:38:48.178Z,2.30
2017-07-14T07:41:15.687Z,2.10
2017-07-14T07:43:43.261Z,2.33
2017-07-14T07:46:16.392Z,2.33
2017-07-14T07:48:49.616Z,2.33
2017-07-14T07:51:17.156Z,2.43
2017-07-14T07:53:44.725Z,3.13
2017-07-14T07:56:12.282Z,2.90
2017-07-14T07:58:39.846Z,3.00
2017-07-14T08:01:07.376Z,2.77
2017-07-14T08:03:35.693Z,3.00
2017-07-14T08:06:03.224Z,3.00
2017-07-14T08:08:30.950Z,3.23
2017-07-14T08:10:58.532Z,3.10
2017-07-14T08:13:26.196Z,3.10
2017-07-14T08:15:54.789Z,2.87
2017-07-14T08:18:22.353Z,2.50
2017-07-14T08:20:49.933Z,3.00
2017-07-14T08:23:17.482Z,2.63
2017-07-14T08:25:45.021Z,3.00
2017-07-14T08:28:12.608Z,2.90
2017-07-14T08:30:40.149Z,2.90
2017-07-14T08:33:07.702Z,3.77
2017-07-14T08:35:35.517Z,2.90
2017-07-14T08:38:03.124Z,2.93
2017-07-14T08:40:30.757Z,2.80
2017-07-14T08:42:59.076Z,2.90
2017-07-14T08:45:26.740Z,2.87
2017-07-14T08:47:55.084Z,2.50
2017-07-14T08:50:22.644Z,2.90
2017-07-14T08:52:50.960Z,2.50
2017-07-14T08:55:18.560Z,2.87
2017-07-14T08:57:46.109Z,3.00
2017-07-14T09:00:13.688Z,2.57
2017-07-14T09:02:41.996Z,2.40
2017-07-14T09:05:09.552Z,2.60
2017-07-14T09:07:37.157Z,2.07
2017-07-14T09:10:04.675Z,2.93
2017-07-14T09:12:32.268Z,2.47
2017-07-14T09:14:59.834Z,2.50
2017-07-14T09:17:27.384Z,2.57
2017-07-14T09:19:54.944Z,2.57
2017-07-14T09:22:22.468Z,3.20
2017-07-14T09:24:50.032Z,2.80
2017-07-14T09:27:17.597Z,1.93
2017-07-14T09:29:45.108Z,2.40
2017-07-14T09:32:12.645Z,2.10
2017-07-14T09:34:40.199Z,2.43
2017-07-14T09:37:07.724Z,2.50
2017-07-14T09:39:35.260Z,2.03
2017-07-14T09:42:02.904Z,1.90
2017-07-14T09:44:30.454Z,2.27
2017-07-14T09:46:58.026Z,2.27
2017-07-14T09:49:25.620Z,2.13
2017-07-14T09:51:53.148Z,1.97
2017-07-14T09:54:20.814Z,2.20
2017-07-14T09:56:48.407Z,2.03
2017-07-14T09:59:15.925Z,1.80
2017-07-14T10:01:43.500Z,1.60
2017-07-14T10:04:11.112Z,2.10
2017-07-14T10:06:38.672Z,1.83
2017-07-14T10:09:06.208Z,2.23
2017-07-14T10:11:33.768Z,1.80
2017-07-14T10:14:01.279Z,2.13
2017-07-14T10:16:28.809Z,1.90
2017-07-14T10:18:56.589Z,2.10
2017-07-14T10:21:24.133Z,1.60
2017-07-14T10:23:51.655Z,2.07
2017-07-14T10:26:19.205Z,2.13
2017-07-14T10:28:46.730Z,2.23
2017-07-14T10:31:14.249Z,2.20
2017-07-14T10:33:41.824Z,1.93
2017-07-14T10:36:09.361Z,2.00
2017-07-14T10:38:36.895Z,1.80
2017-07-14T10:41:04.428Z,2.27
2017-07-14T10:43:32.012Z,1.83
2017-07-14T10:46:00.310Z,1.90
2017-07-14T10:48:27.848Z,1.77
2017-07-14T10:50:55.365Z,2.07
2017-07-14T10:53:22.942Z,1.73
2017-07-14T10:55:50.480Z,1.80
2017-07-14T10:58:18.044Z,1.60
2017-07-14T11:00:45.592Z,1.47
2017-07-14T11:03:13.138Z,1.70
2017-07-14T11:05:40.649Z,1.67
2017-07-14T11:08:08.196Z,1.83
2017-07-14T11:10:35.749Z,1.43
2017-07-14T11:13:03.292Z,1.60
2017-07-14T11:15:30.816Z,1.40
2017-07-14T11:17:58.394Z,1.40
2017-07-14T11:20:25.908Z,1.50
2017-07-14T11:22:53.419Z,1.53
2017-07-14T11:25:20.957Z,1.67
2017-07-14T11:27:48.506Z,1.70
2017-07-14T11:30:16.058Z,1.27
2017-07-14T11:32:44.364Z,1.10
2017-07-14T11:35:11.910Z,1.47
2017-07-14T11:37:39.427Z,1.50
2017-07-14T11:40:06.965Z,1.47
2017-07-14T11:42:34.504Z,1.80
2017-07-14T11:45:02.055Z,2.50
2017-07-14T11:47:29.592Z,2.37
2017-07-14T11:49:57.886Z,3.37
2017-07-14T11:52:25.416Z,3.70
2017-07-14T11:54:52.956Z,3.50
2017-07-14T11:57:20.466Z,3.17
2017-07-14T11:59:48.039Z,3.40
2017-07-14T12:02:15.584Z,2.57
2017-07-14T12:04:43.120Z,3.30
2017-07-14T12:07:10.660Z,2.53
2017-07-14T12:09:38.224Z,2.73
2017-07-14T12:12:05.759Z,2.93
2017-07-14T12:14:33.302Z,2.80
2017-07-14T12:17:00.821Z,2.73
2017-07-14T12:19:28.356Z,2.80
2017-07-14T12:21:55.907Z,3.10
2017-07-14T12:24:23.480Z,3.20
2017-07-14T12:26:51.016Z,3.80
2017-07-14T12:29:18.554Z,3.73
2017-07-14T12:31:46.100Z,3.50
2017-07-14T12:34:13.651Z,3.17
2017-07-14T12:36:41.173Z,3.97
2017-07-14T12:39:08.757Z,3.30
2017-07-14T12:41:36.296Z,3.00
2017-07-14T12:44:03.812Z,2.80
2017-07-14T12:46:31.377Z,3.00
2017-07-14T12:48:58.928Z,3.40
2017-07-14T12:51:26.467Z,2.60
2017-07-14T12:53:53.989Z,4.27
2017-07-14T12:56:21.556Z,3.60
2017-07-14T12:58:49.839Z,3.23
2017-07-14T13:01:18.152Z,3.07
2017-07-14T13:03:45.680Z,3.20
2017-07-14T13:06:13.992Z,4.80
2017-07-14T13:08:41.509Z,3.83
2017-07-14T13:11:09.056Z,3.50
2017-07-14T13:13:36.639Z,3.50
2017-07-14T13:16:04.433Z,3.60
2017-07-14T13:18:31.974Z,3.57
2017-07-14T13:20:59.553Z,3.10
2017-07-14T13:23:27.072Z,3.10
2017-07-14T13:25:54.644Z,2.97
2017-07-14T13:28:22.180Z,3.27
2017-07-14T13:30:49.844Z,3.50
2017-07-14T13:33:17.458Z,3.00
2017-07-14T13:35:45.009Z,3.90
2017-07-14T13:38:12.520Z,3.23
2017-07-14T13:40:40.084Z,2.87
2017-07-14T13:43:08.385Z,3.70
2017-07-14T13:45:35.924Z,3.13
2017-07-14T13:48:03.494Z,3.90
2017-07-14T13:50:31.807Z,4.03
2017-07-14T13:52:59.323Z,4.80
2017-07-14T13:55:28.611Z,5.40
2017-07-14T13:57:56.210Z,3.73
2017-07-14T14:00:23.760Z,4.03
2017-07-14T14:02:51.281Z,4.70
2017-07-14T14:05:18.854Z,12.20
2017-07-14T14:07:46.437Z,5.13
2017-07-14T14:10:13.969Z,5.60
2017-07-14T14:12:41.529Z,5.97
2017-07-14T14:15:09.069Z,7.23
2017-07-14T14:17:36.617Z,6.67
2017-07-14T14:20:04.181Z,5.77
2017-07-14T14:22:31.786Z,5.20
2017-07-14T14:25:00.081Z,4.50
2017-07-14T14:27:27.699Z,5.60
2017-07-14T14:29:55.331Z,5.27
2017-07-14T14:32:22.957Z,5.17
2017-07-14T14:34:50.492Z,4.87
2017-07-14T14:37:18.053Z,4.97
2017-07-14T14:39:45.581Z,4.70
2017-07-14T14:42:13.161Z,4.33
2017-07-14T14:44:40.688Z,3.93
2017-07-14T14:47:08.258Z,3.90
2017-07-14T14:49:35.777Z,4.03
2017-07-14T14:52:03.359Z,3.87
2017-07-14T14:54:30.984Z,3.63
2017-07-14T14:56:58.601Z,3.57
2017-07-14T14:59:26.128Z,3.70
2017-07-14T15:01:53.696Z,3.80
2017-07-14T15:04:21.235Z,3.53
2017-07-14T15:06:48.789Z,4.20
2017-07-14T15:09:17.347Z,3.33
2017-07-14T15:11:44.902Z,3.37
2017-07-14T15:14:12.425Z,3.90
2017-07-14T15:16:39.977Z,3.40
2017-07-14T15:19:07.518Z,3.20
2017-07-14T15:21:35.091Z,3.50
2017-07-14T15:24:02.724Z,3.87
2017-07-14T15:26:30.261Z,3.77
2017-07-14T15:28:57.824Z,3.30
2017-07-14T15:31:25.341Z,3.43
2017-07-14T15:33:52.882Z,3.80
2017-07-14T15:36:20.393Z,3.67
2017-07-14T15:38:47.958Z,2.93
2017-07-14T15:41:16.275Z,3.87
2017-07-14T15:43:43.852Z,3.87
2017-07-14T15:46:11.400Z,4.27
2017-07-14T15:48:38.968Z,4.20
2017-07-14T15:51:07.436Z,4.33
2017-07-14T15:53:34.983Z,4.23
2017-07-14T15:56:02.515Z,4.43
2017-07-14T15:58:30.070Z,4.20
2017-07-14T16:00:57.612Z,4.50
2017-07-14T16:03:25.269Z,3.70
2017-07-14T16:05:52.791Z,4.20
2017-07-14T16:08:20.344Z,4.70
2017-07-14T16:10:47.983Z,4.83
2017-07-14T16:13:16.342Z,4.27
2017-07-14T16:15:43.853Z,3.00
2017-07-14T16:18:11.401Z,6.27
2017-07-14T16:20:38.949Z,4.70
2017-07-14T16:23:07.225Z,5.70
2017-07-14T16:25:35.664Z,4.93
2017-07-14T16:28:03.184Z,5.20
2017-07-14T16:30:30.739Z,4.83
2017-07-14T16:32:58.283Z,4.83
2017-07-14T16:35:26.584Z,4.10
2017-07-14T16:37:54.118Z,4.40
2017-07-14T16:40:21.676Z,3.70
2017-07-14T16:42:49.953Z,3.73
2017-07-14T16:45:18.229Z,3.57
2017-07-14T16:47:46.551Z,3.67
2017-07-14T16:50:14.081Z,3.33
2017-07-14T16:52:41.604Z,4.13
2017-07-14T16:55:09.120Z,3.20
2017-07-14T16:57:36.701Z,3.10
2017-07-14T17:00:04.236Z,4.20
2017-07-14T17:02:31.811Z,3.53
2017-07-14T17:04:59.351Z,3.33
2017-07-14T17:07:27.882Z,3.50
2017-07-14T17:09:55.393Z,8.37
2017-07-14T17:12:23.001Z,6.97
2017-07-14T17:14:50.608Z,11.37
2017-07-14T17:17:18.116Z,5.30
2017-07-14T17:19:45.656Z,5.70
2017-07-14T17:22:13.215Z,5.33
2017-07-14T17:24:40.777Z,4.57
2017-07-14T17:27:08.326Z,3.80
2017-07-14T17:29:35.876Z,3.27
2017-07-14T17:32:03.395Z,3.30
2017-07-14T17:34:30.978Z,3.17
2017-07-14T17:36:58.486Z,3.67
2017-07-14T17:39:26.026Z,3.83
2017-07-14T17:41:53.639Z,3.87
2017-07-14T17:44:21.152Z,3.70
2017-07-14T17:46:48.696Z,3.40
2017-07-14T17:49:16.285Z,3.97
2017-07-14T17:51:43.841Z,3.33
2017-07-14T17:54:11.372Z,3.63
2017-07-14T17:56:38.974Z,3.53
2017-07-14T17:59:06.492Z,3.13
2017-07-14T18:01:34.005Z,4.60
2017-07-14T18:04:01.569Z,3.07
2017-07-14T18:06:30.794Z,3.47
2017-07-14T18:08:58.377Z,2.90
2017-07-14T18:11:25.940Z,3.10
2017-07-14T18:13:53.497Z,2.90
2017-07-14T18:16:21.029Z,2.67
2017-07-14T18:18:49.337Z,2.30
2017-07-14T18:21:16.853Z,2.20
2017-07-14T18:23:44.404Z,2.43
2017-07-14T18:26:12.688Z,2.50
2017-07-14T18:28:40.216Z,2.27
2017-07-14T18:31:09.159Z,2.50
2017-07-14T18:33:36.947Z,1.93
2017-07-14T18:36:04.513Z,2.07
2017-07-14T18:38:32.060Z,2.47
2017-07-14T18:40:59.588Z,1.87
2017-07-14T18:43:27.111Z,2.03
2017-07-14T18:45:54.682Z,2.13
2017-07-14T18:48:22.224Z,2.03
2017-07-14T18:50:49.806Z,2.20
2017-07-14T18:53:17.354Z,2.43
2017-07-14T18:55:44.865Z,2.07
2017-07-14T18:58:12.433Z,2.47
2017-07-14T19:00:39.981Z,2.30
2017-07-14T19:03:07.518Z,2.77
2017-07-14T19:05:35.058Z,2.77
2017-07-14T19:08:03.384Z,2.67
2017-07-14T19:10:30.920Z,6.67
2017-07-14T19:12:58.437Z,6.97
2017-07-14T19:15:25.977Z,3.70
2017-07-14T19:17:53.509Z,13.30
2017-07-14T19:20:21.090Z,6.67
2017-07-14T19:22:48.624Z,12.00
2017-07-14T19:25:16.144Z,4.80
2017-07-14T19:27:43.660Z,2.97
2017-07-14T19:30:11.221Z,2.43
2017-07-14T19:32:38.740Z,2.50
2017-07-14T19:35:06.288Z,2.03
2017-07-14T19:37:34.564Z,2.40
2017-07-14T19:40:02.844Z,2.40
2017-07-14T19:42:31.153Z,3.00
2017-07-14T19:44:58.677Z,2.60
2017-07-14T19:47:26.232Z,2.50
2017-07-14T19:49:54.567Z,2.50
2017-07-14T19:52:22.124Z,2.33
2017-07-14T19:54:49.637Z,2.50
2017-07-14T19:57:17.960Z,2.20
2017-07-14T19:59:45.477Z,2.10
2017-07-14T20:02:13.016Z,2.27
2017-07-14T20:04:40.522Z,2.20
2017-07-14T20:07:08.064Z,1.93
2017-07-14T20:09:35.640Z,2.37
2017-07-14T20:12:03.168Z,2.40
2017-07-14T20:14:30.759Z,2.50
2017-07-14T20:16:58.297Z,3.50
2017-07-14T20:19:26.597Z,3.30
2017-07-14T20:21:54.208Z,4.03
2017-07-14T20:24:21.773Z,3.57
2017-07-14T20:26:49.320Z,3.03
2017-07-14T20:29:16.863Z,3.10
2017-07-14T20:31:44.400Z,4.50
2017-07-14T20:34:11.954Z,6.50
2017-07-14T20:36:39.514Z,4.00
2017-07-14T20:39:07.801Z,14.33
2017-07-14T20:41:35.340Z,7.40
2017-07-14T20:44:02.857Z,7.40
2017-07-14T20:46:30.416Z,7.13
2017-07-14T20:48:58.564Z,6.63
2017-07-14T20:51:26.104Z,4.80
2017-07-14T20:53:53.637Z,4.00
2017-07-14T20:56:21.181Z,4.50
2017-07-14T20:58:49.128Z,3.87
2017-07-14T21:01:16.696Z,3.30
2017-07-14T21:03:44.223Z,2.93
2017-07-14T21:06:11.744Z,3.17
2017-07-14T21:08:39.289Z,2.80
2017-07-14T21:11:06.814Z,2.90
2017-07-14T21:13:34.396Z,2.93
2017-07-14T21:16:01.909Z,2.30
2017-07-14T21:18:29.481Z,2.83
2017-07-14T21:20:56.993Z,2.73
2017-07-14T21:23:25.320Z,3.00
2017-07-14T21:25:52.832Z,2.60
2017-07-14T21:28:20.388Z,3.57
2017-07-14T21:30:48.680Z,2.80
2017-07-14T21:33:16.236Z,2.93
2017-07-14T21:35:43.797Z,2.43
2017-07-14T21:38:11.364Z,2.10
2017-07-14T21:40:38.907Z,2.20
2017-07-14T21:43:07.220Z,2.13
2017-07-14T21:45:34.781Z,2.30
2017-07-14T21:48:02.399Z,1.77
2017-07-14T21:50:30.715Z,2.17
2017-07-14T21:52:58.328Z,2.07
2017-07-14T21:55:25.905Z,2.50
2017-07-14T21:57:53.461Z,2.03
2017-07-14T22:00:21.035Z,2.37
2017-07-14T22:02:48.579Z,2.03
2017-07-14T22:05:16.128Z,1.93
2017-07-14T22:07:43.676Z,2.40
2017-07-14T22:10:11.190Z,2.10
2017-07-14T22:12:38.735Z,2.23
2017-07-14T22:15:06.272Z,1.90
2017-07-14T22:17:34.581Z,2.13
2017-07-14T22:20:02.091Z,1.60
2017-07-14T22:22:29.655Z,2.20
2017-07-14T22:24:57.958Z,1.90
2017-07-14T22:27:25.501Z,2.00
2017-07-14T22:29:53.025Z,2.10
2017-07-14T22:32:20.580Z,2.23
2017-07-14T22:34:48.195Z,1.57
2017-07-14T22:37:15.736Z,1.90
2017-07-14T22:39:43.286Z,2.07
2017-07-14T22:42:10.825Z,2.00
2017-07-14T22:44:38.417Z,1.90
2017-07-14T22:47:05.979Z,1.90
2017-07-14T22:49:33.588Z,2.20
2017-07-14T22:52:01.202Z,2.30
2017-07-14T22:54:29.501Z,1.90
2017-07-14T22:56:57.032Z,2.00
2017-07-14T22:59:24.587Z,2.80
2017-07-14T23:01:52.324Z,2.90
2017-07-14T23:04:19.932Z,16.50
2017-07-14T23:06:47.517Z,9.50
2017-07-14T23:09:15.076Z,6.23
2017-07-14T23:11:42.607Z,5.37
2017-07-14T23:14:10.933Z,3.90
2017-07-14T23:16:39.494Z,3.70
2017-07-14T23:19:07.018Z,3.80
2017-07-14T23:21:34.541Z,3.03
2017-07-14T23:24:02.092Z,2.73
2017-07-14T23:26:29.781Z,3.50
2017-07-14T23:28:57.902Z,2.80
2017-07-14T23:31:25.556Z,2.50
2017-07-14T23:33:53.601Z,2.87
2017-07-14T23:36:21.938Z,2.47
2017-07-14T23:38:49.494Z,2.77
2017-07-14T23:41:17.060Z,2.50
2017-07-14T23:43:44.639Z,2.20
2017-07-14T23:46:12.188Z,2.17
2017-07-14T23:48:39.847Z,1.90
2017-07-14T23:51:07.402Z,2.33
2017-07-14T23:53:34.953Z,1.87
2017-07-14T23:56:02.464Z,2.03
2017-07-14T23:58:30.023Z,1.80
